createdAt,value
2023-02-08T06:18:50.422Z,86.95
2023-02-08T06:28:50.415Z,90.00
2023-02-08T06:38:51.403Z,90.00
2023-02-08T06:48:50.496Z,90.00
2023-02-08T06:58:50.574Z,90.48
2023-02-08T07:08:50.612Z,111.70
2023-02-08T07:18:50.562Z,133.31
2023-02-08T07:28:50.512Z,122.76
2023-02-08T07:38:50.655Z,125.14
2023-02-08T07:48:50.499Z,107.38
2023-02-08T07:58:50.697Z,100.87
2023-02-08T08:08:50.790Z,90.00
2023-02-08T08:18:50.791Z,90.00
2023-02-08T08:28:50.764Z,90.14
2023-02-08T08:38:50.913Z,90.51
2023-02-08T08:48:51.158Z,90.00
2023-02-08T08:58:51.022Z,90.36
2023-02-08T09:08:51.873Z,90.22
2023-02-08T09:18:51.172Z,90.11
2023-02-08T09:28:51.032Z,90.00
2023-02-08T09:38:51.202Z,90.00
2023-02-08T09:48:51.019Z,90.08
2023-02-08T09:58:51.096Z,92.06
2023-02-08T10:08:51.151Z,93.80
2023-02-08T10:18:51.066Z,91.90
2023-02-08T10:28:52.374Z,91.90
2023-02-08T10:38:51.194Z,97.67
2023-02-08T10:48:51.313Z,91.95
2023-02-08T10:58:51.092Z,101.60
2023-02-08T11:08:51.223Z,90.06
2023-02-08T11:18:51.281Z,91.04
2023-02-08T11:28:51.152Z,90.00
2023-02-08T11:38:51.233Z,90.00
2023-02-08T11:48:51.348Z,91.20
2023-02-08T11:58:51.215Z,90.60
2023-02-08T12:08:51.198Z,92.63
2023-02-08T12:18:51.323Z,90.00
2023-02-08T12:28:51.267Z,90.30
2023-02-08T12:38:51.190Z,90.13
2023-02-08T12:48:51.219Z,90.00
2023-02-08T12:58:53.518Z,90.00
2023-02-08T13:08:51.101Z,91.84
2023-02-08T13:18:51.190Z,90.00
2023-02-08T13:28:51.110Z,93.39
2023-02-08T13:38:51.177Z,93.19
2023-02-08T13:48:51.097Z,96.20
2023-02-08T13:58:51.100Z,90.93
2023-02-08T14:08:51.055Z,92.63
2023-02-08T14:18:51.133Z,90.00
2023-02-08T14:28:51.140Z,90.00
2023-02-08T14:38:51.134Z,110.72
2023-02-08T14:48:51.278Z,108.43
2023-02-08T14:58:51.197Z,90.00
2023-02-08T15:08:51.313Z,107.78
2023-02-08T15:18:51.199Z,90.00
2023-02-08T15:28:51.173Z,90.00
2023-02-08T15:38:51.232Z,90.88
2023-02-08T15:48:51.151Z,118.47
2023-02-08T15:58:51.304Z,109.61
2023-02-08T16:08:51.296Z,90.11
2023-02-08T16:18:51.237Z,90.00
2023-02-08T16:28:51.419Z,91.15
2023-02-08T16:38:51.287Z,91.54
2023-02-08T16:48:51.218Z,90.91
2023-02-08T16:58:51.317Z,93.77
2023-02-08T17:08:51.343Z,90.45
2023-02-08T17:18:51.203Z,90.11
2023-02-08T17:28:51.363Z,90.72
2023-02-08T17:38:51.256Z,91.97
2023-02-08T17:48:51.335Z,96.03
2023-02-08T17:58:53.471Z,92.71
2023-02-08T18:08:51.242Z,101.89
2023-02-08T18:18:51.313Z,99.22
2023-02-08T18:28:51.268Z,119.99
2023-02-08T18:38:51.202Z,116.55
2023-02-08T18:48:51.278Z,109.90
2023-02-08T18:58:51.240Z,104.17
2023-02-08T19:08:51.368Z,115.54
2023-02-08T19:18:51.454Z,128.20
